Bookmark and Share
Track history (hours):
 

Meishomaru

Last reported at 2014-Apr-16 10:28 UTC. Time now 2014-Apr-18 10:40 UTC.
Position N 34°37' E 134°55'.

Length 68 m; draft 4 m.

Type: Tanker. MMSI: 431001216.

NotesDate/timePositionNaut miles runAvg speedWind from/ knotsBaromVisibWave heightAir tempDewpointWater temp
2014-Apr-16 10:28N 34°37' E 134°55'910.3
2014-Apr-16 09:34N 34°31' E 135°04'1513.5
2014-Apr-16 08:25N 34°16' E 134°59'1112.0
2014-Apr-16 07:30N 34°05' E 135°01'212 9.2
2014-Apr-15 08:31N 34°52' E 139°11'2010.2
2014-Apr-15 06:32N 35°03' E 139°32'9 9.7
2014-Apr-15 05:34N 35°07' E 139°42'20 9.9
2014-Apr-15 03:34N 35°27' E 139°46'4 0.7
2014-Apr-14 22:34N 35°29' E 139°49'0 0.0
2014-Apr-14 21:31N 35°29' E 139°49'0 0.0
2014-Apr-14 20:31N 35°29' E 139°49'0 0.0
2014-Apr-14 17:31N 35°29' E 139°49'0 0.0
2014-Apr-14 16:31N 35°29' E 139°49'0 0.0
2014-Apr-14 15:31N 35°29' E 139°49'0 0.0
2014-Apr-14 13:31N 35°29' E 139°49'0 0.0
2014-Apr-14 11:31N 35°29' E 139°49'0 0.0
2014-Apr-14 10:31N 35°29' E 139°49'0 0.1
2014-Apr-14 09:31N 35°29' E 139°49'0 0.0
2014-Apr-14 08:31N 35°29' E 139°49'0 0.0
2014-Apr-14 06:31N 35°29' E 139°49'0 0.0
2014-Apr-14 05:31N 35°29' E 139°49'0 0.0
2014-Apr-13 22:25N 35°29' E 139°49'0 0.1
2014-Apr-13 21:31N 35°29' E 139°49'0 0.0
2014-Apr-13 20:25N 35°29' E 139°49'0 0.0
2014-Apr-13 19:31N 35°29' E 139°49'0 0.0
2014-Apr-13 18:31N 35°29' E 139°49'0 0.0
2014-Apr-13 17:22N 35°29' E 139°49'0 0.0
2014-Apr-13 16:28N 35°29' E 139°49'0 0.1
2014-Apr-13 15:31N 35°29' E 139°49'3 3.3
2014-Apr-13 14:33N 35°26' E 139°48'1211.6
2014-Apr-13 13:33N 35°15' E 139°47'1312.8
2014-Apr-13 12:33N 35°02' E 139°44'1111.0
2014-Apr-13 11:33N 34°52' E 139°50'1311.7
2014-Apr-13 10:26N 34°57' E 140°05'4011.8
2014-Apr-13 07:03N 35°25' E 140°40'30 8.1
2014-Apr-13 03:23N 35°55' E 140°41'2 0.5
2014-Apr-12 23:33N 35°53' E 140°41'5 1.8
2014-Apr-12 20:29N 35°58' E 140°44'0 0.0
2014-Apr-12 19:11N 35°58' E 140°44'6 1.6
2014-Apr-12 15:33N 35°53' E 140°47'1411.7
2014-Apr-12 14:19N 35°40' E 140°54'1013.2
2014-Apr-12 13:33N 35°32' E 140°47'2013.5
2014-Apr-12 12:03N 35°15' E 140°32'814.1
2014-Apr-12 11:31N 35°10' E 140°26'1413.6
2014-Apr-12 10:29N 35°01' E 140°13'1313.3
2014-Apr-12 09:31N 34°54' E 139°60'1211.7
2014-Apr-12 08:31N 34°55' E 139°46'1111.7
2014-Apr-12 07:33N 35°06' E 139°44'1212.1
2014-Apr-12 06:33N 35°18' E 139°44'1111.3
2014-Apr-12 05:33N 35°29' E 139°43'2 1.3
2014-Apr-12 04:19N 35°30' E 139°45'1 0.2
2014-Apr-12 00:34N 35°31' E 139°46'3 3.0
2014-Apr-11 23:32N 35°29' E 139°49'0 0.0
2014-Apr-11 22:32N 35°29' E 139°49'0 0.0
2014-Apr-11 21:32N 35°29' E 139°49'0 0.0
2014-Apr-11 20:29N 35°29' E 139°49'0 0.1
2014-Apr-11 19:32N 35°29' E 139°49'0 0.0
2014-Apr-11 18:29N 35°29' E 139°49'0 0.0
2014-Apr-11 17:32N 35°29' E 139°49'4 4.3
2014-Apr-11 16:33N 35°26' E 139°47'1111.3
2014-Apr-11 15:33N 35°14' E 139°47'1311.8
2014-Apr-11 14:29N 35°02' E 139°44'17 8.4
2014-Apr-11 12:30N 34°56' E 140°03'2611.1
2014-Apr-11 10:08N 35°12' E 140°29'46 3.6
2014-Apr-10 21:14N 35°57' E 140°42'0 0.0
2014-Apr-10 19:20N 35°57' E 140°42'2 0.2
2014-Apr-10 06:32N 35°56' E 140°45'2211.0
2014-Apr-10 04:31N 35°35' E 140°50'2613.4
2014-Apr-10 02:33N 35°13' E 140°31'1414.4
2014-Apr-10 01:33N 35°04' E 140°17'1413.6
2014-Apr-10 00:33N 34°56' E 140°04'1712.6
2014-Apr-09 23:11N 34°51' E 139°43'238 6.7
2014-Apr-08 11:33N 34°09' E 134°59'1313.4
2014-Apr-08 10:33N 34°22' E 135°01'1312.9
2014-Apr-08 09:33N 34°29' E 135°14'10 1.9
2014-Apr-08 04:12N 34°33' E 135°25'3 4.9
2014-Apr-08 03:31N 34°32' E 135°21'0 0.0
2014-Apr-08 02:31N 34°32' E 135°21'0 0.1
2014-Apr-08 01:19N 34°32' E 135°21'0 0.0
2014-Apr-08 00:13N 34°32' E 135°21'0 0.0
2014-Apr-07 23:19N 34°32' E 135°21'0 0.1
2014-Apr-07 22:31N 34°32' E 135°21'0 0.0
2014-Apr-07 20:07N 34°32' E 135°21'0 0.0
2014-Apr-07 19:13N 34°32' E 135°21'0 0.0
2014-Apr-07 17:07N 34°32' E 135°21'0 0.0
2014-Apr-07 16:13N 34°32' E 135°21'3 4.3
2014-Apr-07 15:33N 34°31' E 135°18'1312.9
2014-Apr-07 14:33N 34°23' E 135°06'1211.4
2014-Apr-07 13:28N 34°12' E 134°60'207 8.6
2014-Apr-06 13:24N 34°49' E 139°07'1511.8
2014-Apr-06 12:06N 34°59' E 139°21'712.3
2014-Apr-06 11:33N 35°02' E 139°29'1312.7
2014-Apr-06 10:33N 35°08' E 139°42'  

Dump ship's entire track history

sailing weather and tide predictions

Meishomaru — JD3044 — position and weather